Time;durP1;ratioP1;P1;durP2;ratioP2;P2;SDS_P1;SDS_P2;PMS_P1;PMS_P2;Temp;Humidity;BMP_temperature;BMP_pressure;BME280_temperature;BME280_humidity;BME280_pressure;Samples;Min_cycle;Max_cycle;Signal;HPM_P1;HPM_P2
2022/10/30 00:01:06;;;;;;;1.65;0.60;;;21.60;59.50;;;;;;4989915;28;20742;-83
2022/10/30 00:03:33;;;;;;;2.60;0.68;;;21.60;57.80;;;;;;4990459;28;20387;-81
2022/10/30 00:06:05;;;;;;;2.33;0.50;;;21.70;58.30;;;;;;4991153;28;20408;-85
2022/10/30 00:08:32;;;;;;;2.40;0.70;;;21.80;57.10;;;;;;4991125;28;20381;-83
2022/10/30 00:11:09;;;;;;;1.50;0.82;;;21.80;56.90;;;;;;4991093;28;20377;-84
2022/10/30 00:13:36;;;;;;;2.22;0.50;;;21.70;58.80;;;;;;4990739;28;20420;-85
2022/10/30 00:16:06;;;;;;;1.63;0.50;;;22.00;56.00;;;;;;4990932;28;20450;-80
2022/10/30 00:18:38;;;;;;;2.00;0.50;;;21.90;57.50;;;;;;4990635;28;20412;-82
2022/10/30 00:21:11;;;;;;;0.70;0.40;;;22.10;56.80;;;;;;4991317;28;20457;-89
2022/10/30 00:23:38;;;;;;;2.17;0.50;;;22.20;55.60;;;;;;4990572;28;20397;-79
2022/10/30 00:26:08;;;;;;;1.05;0.50;;;22.00;55.80;;;;;;4990813;28;20381;-79
2022/10/30 00:28:35;;;;;;;3.60;0.97;;;22.20;55.70;;;;;;4990708;28;20385;-79
2022/10/30 00:31:03;;;;;;;2.25;1.40;;;22.30;57.90;;;;;;4990728;28;20372;-80
2022/10/30 00:33:31;;;;;;;1.80;0.75;;;22.70;57.30;;;;;;4990979;28;20385;-85
2022/10/30 00:35:59;;;;;;;1.05;0.50;;;22.80;56.90;;;;;;4990887;28;20377;-81
2022/10/30 00:38:26;;;;;;;0.98;0.52;;;23.20;57.00;;;;;;4989769;28;20510;-83
2022/10/30 00:40:53;;;;;;;1.33;0.43;;;23.20;54.60;;;;;;4993934;28;20455;-79
2022/10/30 00:43:38;;;;;;;1.60;0.63;;;23.20;55.10;;;;;;4994329;28;20380;-85
2022/10/30 00:46:30;;;;;;;1.92;0.50;;;23.10;55.80;;;;;;4994333;28;20381;-80
2022/10/30 00:49:08;;;;;;;1.52;0.45;;;23.10;55.00;;;;;;4992169;28;20745;-85
2022/10/30 00:51:38;;;;;;;1.60;0.47;;;23.10;55.10;;;;;;4999558;28;20398;-79
2022/10/30 00:54:06;;;;;;;2.22;0.40;;;23.30;54.50;;;;;;5001929;28;20385;-83
2022/10/30 00:56:34;;;;;;;1.60;0.50;;;23.50;54.60;;;;;;4994080;28;20426;-80
2022/10/30 00:59:15;;;;;;;2.08;0.60;;;23.60;53.40;;;;;;4994403;28;20439;-78
2022/10/30 01:01:44;;;;;;;1.33;0.30;;;23.60;53.30;;;;;;4993950;28;20444;-80
2022/10/30 01:04:14;;;;;;;1.30;0.50;;;23.50;53.40;;;;;;4993961;28;20803;-84
2022/10/30 01:06:47;;;;;;;1.27;0.50;;;23.40;52.40;;;;;;4993804;28;20377;-85
2022/10/30 01:09:14;;;;;;;1.63;0.40;;;23.30;51.70;;;;;;4994047;28;20448;-84
2022/10/30 01:11:41;;;;;;;1.80;0.40;;;23.50;53.50;;;;;;4993840;28;20472;-84
2022/10/30 01:14:11;;;;;;;1.20;0.50;;;24.10;52.90;;;;;;4991800;28;20897;-82
2022/10/30 01:16:58;;;;;;;1.48;0.50;;;24.70;51.00;;;;;;4993706;28;20393;-83
2022/10/30 01:20:03;;;;;;;2.03;0.40;;;25.10;50.10;;;;;;4993832;28;20822;-86
2022/10/30 01:23:01;;;;;;;0.73;0.30;;;25.00;48.00;;;;;;4971971;28;20383;-79
2022/10/30 01:25:52;;;;;;;1.00;0.47;;;24.80;50.00;;;;;;4982843;28;20852;-83
2022/10/30 01:28:25;;;;;;;1.60;0.50;;;25.00;48.30;;;;;;4988005;28;20394;-85
2022/10/30 01:31:30;;;;;;;2.97;0.60;;;25.50;49.10;;;;;;4971949;28;20386;-85
2022/10/30 01:34:20;;;;;;;2.03;0.50;;;26.20;48.10;;;;;;4971119;28;20394;-79
2022/10/30 01:36:59;;;;;;;2.20;0.50;;;26.40;47.00;;;;;;4971809;28;20394;-79
2022/10/30 01:39:31;;;;;;;1.10;0.40;;;26.40;46.60;;;;;;4971686;28;20421;-79
2022/10/30 01:41:58;;;;;;;1.45;0.60;;;26.40;46.60;;;;;;4971789;28;20379;-81
2022/10/30 01:44:33;;;;;;;2.38;0.60;;;26.60;46.20;;;;;;4987670;28;20814;-80
2022/10/30 01:47:18;;;;;;;0.40;0.40;;;26.80;46.20;;;;;;4971484;28;20398;-84
2022/10/30 01:50:16;;;;;;;1.30;0.47;;;26.60;46.10;;;;;;4971275;28;20465;-86
2022/10/30 01:52:49;;;;;;;3.40;0.43;;;27.20;44.10;;;;;;4970520;28;20391;-80
2022/10/30 01:55:36;;;;;;;0.70;0.50;;;27.60;42.20;;;;;;4971418;28;20843;-81
2022/10/30 01:58:30;;;;;;;0.95;0.60;;;27.50;43.40;;;;;;4971380;28;20473;-81
2022/10/30 02:00:59;;;;;;;0.55;0.40;;;27.80;43.60;;;;;;4993014;28;20388;-80
2022/10/30 02:03:27;;;;;;;0.73;0.40;;;28.00;43.20;;;;;;4993026;28;20389;-80
2022/10/30 02:05:54;;;;;;;0.75;0.50;;;28.10;42.90;;;;;;4992962;28;20369;-81
2022/10/30 02:08:24;;;;;;;1.48;0.80;;;28.00;43.60;;;;;;4993167;28;20369;-84
2022/10/30 02:10:53;;;;;;;1.52;0.90;;;27.90;44.70;;;;;;4992882;28;20487;-84
2022/10/30 02:13:20;;;;;;;4.05;1.15;;;28.40;44.90;;;;;;4992573;28;20478;-82
2022/10/30 02:15:49;;;;;;;2.00;1.10;;;28.90;43.90;;;;;;5001461;28;20383;-88
2022/10/30 02:18:16;;;;;;;2.47;1.10;;;29.00;43.40;;;;;;4997563;28;20405;-84
2022/10/30 02:20:43;;;;;;;1.90;0.90;;;28.60;42.50;;;;;;4992764;28;20459;-80
2022/10/30 02:23:15;;;;;;;2.15;0.90;;;28.30;43.80;;;;;;4992378;28;20392;-81
2022/10/30 02:25:42;;;;;;;1.38;0.73;;;28.30;44.10;;;;;;4992428;28;20467;-80
2022/10/30 02:28:09;;;;;;;1.55;0.70;;;28.70;43.10;;;;;;4992431;28;20385;-80
2022/10/30 02:30:36;;;;;;;1.95;0.60;;;28.70;42.10;;;;;;4992478;28;20745;-84
2022/10/30 02:33:03;;;;;;;1.43;0.90;;;29.10;42.10;;;;;;4992396;28;20447;-80
2022/10/30 02:35:30;;;;;;;1.83;0.83;;;29.20;42.00;;;;;;4992499;28;20435;-81
2022/10/30 02:37:57;;;;;;;1.00;0.80;;;29.30;42.10;;;;;;4991984;28;20412;-80
2022/10/30 02:40:24;;;;;;;1.40;0.90;;;29.50;42.30;;;;;;4992123;28;20703;-80
2022/10/30 02:42:53;;;;;;;1.25;0.80;;;29.40;42.20;;;;;;4992210;28;20400;-86
2022/10/30 02:45:20;;;;;;;1.90;0.70;;;29.50;41.90;;;;;;5002027;28;20796;-81
2022/10/30 02:47:47;;;;;;;1.00;0.80;;;29.60;42.10;;;;;;4995557;28;20392;-81
2022/10/30 02:50:14;;;;;;;1.52;0.98;;;30.00;41.80;;;;;;4991847;28;20448;-80
2022/10/30 02:52:41;;;;;;;6.05;3.55;;;30.20;40.40;;;;;;4991766;28;20881;-86
2022/10/30 02:55:08;;;;;;;1.83;0.95;;;29.60;40.10;;;;;;4991937;28;20385;-79
2022/10/30 02:57:35;;;;;;;0.93;0.65;;;29.20;41.80;;;;;;4992047;28;20412;-80
2022/10/30 03:00:04;;;;;;;1.98;0.70;;;28.90;43.10;;;;;;5005579;28;20385;-82
2022/10/30 03:02:31;;;;;;;0.70;0.50;;;29.00;41.60;;;;;;4990248;28;20439;-82
2022/10/30 03:04:58;;;;;;;1.70;0.60;;;28.80;41.50;;;;;;4990492;28;20439;-83
2022/10/30 03:07:25;;;;;;;0.50;0.50;;;28.50;42.50;;;;;;4991887;28;20389;-79
2022/10/30 03:09:53;;;;;;;1.80;0.63;;;28.40;42.70;;;;;;4991876;28;20472;-82
2022/10/30 03:12:20;;;;;;;1.63;0.57;;;28.50;42.80;;;;;;4988155;28;20443;-81
2022/10/30 03:14:48;;;;;;;1.65;0.52;;;28.80;41.80;;;;;;4991335;28;20622;-86
2022/10/30 03:17:15;;;;;;;1.58;0.57;;;29.00;41.80;;;;;;4992076;28;20418;-77
2022/10/30 03:19:42;;;;;;;1.10;0.50;;;29.10;40.60;;;;;;4991630;28;20480;-85
2022/10/30 03:22:09;;;;;;;0.90;0.50;;;29.60;40.80;;;;;;4991685;28;20381;-79
2022/10/30 03:24:37;;;;;;;0.88;0.60;;;30.10;41.20;;;;;;4990985;28;20396;-81
2022/10/30 03:27:04;;;;;;;1.23;0.55;;;30.50;39.90;;;;;;4991148;28;20393;-75
2022/10/30 03:29:31;;;;;;;1.20;0.60;;;30.70;39.20;;;;;;4992169;28;20377;-83
2022/10/30 03:31:58;;;;;;;0.77;0.60;;;30.60;39.30;;;;;;4991173;28;20491;-77
2022/10/30 03:34:26;;;;;;;1.77;0.60;;;31.30;40.40;;;;;;4991178;28;20876;-83
2022/10/30 03:36:57;;;;;;;2.00;0.80;;;31.80;38.80;;;;;;4991428;28;20749;-77
2022/10/30 03:39:24;;;;;;;1.55;0.70;;;32.40;37.20;;;;;;4990839;28;20393;-78
2022/10/30 03:41:51;;;;;;;1.45;0.80;;;32.60;38.00;;;;;;4993895;28;20404;-93
2022/10/30 03:44:19;;;;;;;1.98;1.00;;;31.80;39.10;;;;;;4991170;28;20404;-87
2022/10/30 03:46:46;;;;;;;1.55;0.88;;;31.00;38.90;;;;;;4991844;28;20384;-77
2022/10/30 03:49:13;;;;;;;0.82;0.80;;;30.90;39.80;;;;;;4991590;28;20393;-89
2022/10/30 03:51:40;;;;;;;1.80;0.80;;;30.90;39.70;;;;;;4990442;28;20393;-82
2022/10/30 03:54:07;;;;;;;2.28;0.90;;;30.80;39.40;;;;;;4991101;28;20397;-80
2022/10/30 03:56:34;;;;;;;2.20;0.90;;;31.10;40.10;;;;;;4990795;28;20397;-82
2022/10/30 03:59:01;;;;;;;0.93;0.60;;;30.80;39.30;;;;;;4990809;28;20405;-78
2022/10/30 04:01:28;;;;;;;0.95;0.50;;;30.80;40.10;;;;;;4990612;28;20745;-78
2022/10/30 04:03:55;;;;;;;0.70;0.47;;;31.10;40.00;;;;;;4990928;28;20393;-81
2022/10/30 04:06:22;;;;;;;1.15;0.50;;;31.20;39.50;;;;;;4990674;28;20785;-81
2022/10/30 04:08:49;;;;;;;1.17;0.57;;;31.20;38.90;;;;;;4991120;28;20384;-82
2022/10/30 04:11:15;;;;;;;1.23;0.50;;;30.70;39.60;;;;;;4991079;28;20408;-82
2022/10/30 04:13:42;;;;;;;1.60;0.57;;;30.10;39.50;;;;;;4990489;28;20451;-80
2022/10/30 04:16:09;;;;;;;1.30;0.57;;;30.30;39.60;;;;;;4993950;28;20831;-83
2022/10/30 04:18:36;;;;;;;1.10;0.60;;;30.80;39.50;;;;;;4994846;28;20746;-77
2022/10/30 04:21:03;;;;;;;1.20;0.60;;;31.40;39.50;;;;;;4995583;28;20733;-78
2022/10/30 04:23:30;;;;;;;0.90;0.50;;;31.40;38.90;;;;;;4995121;28;20468;-83
2022/10/30 04:26:00;;;;;;;1.17;0.60;;;31.60;39.10;;;;;;4994030;28;20395;-84
2022/10/30 04:28:27;;;;;;;1.13;0.50;;;31.30;38.40;;;;;;4994546;28;20391;-79
2022/10/30 04:30:55;;;;;;;0.73;0.50;;;31.10;38.40;;;;;;4995020;28;20385;-77
2022/10/30 04:33:22;;;;;;;0.93;0.40;;;30.60;38.60;;;;;;4993779;28;20466;-78
2022/10/30 04:35:49;;;;;;;1.23;0.52;;;30.10;39.70;;;;;;4993189;28;20389;-75
2022/10/30 04:38:18;;;;;;;0.90;0.50;;;29.70;40.30;;;;;;4993937;28;20424;-82
2022/10/30 04:40:45;;;;;;;1.80;0.68;;;29.30;40.80;;;;;;4993666;28;20389;-77
2022/10/30 04:43:15;;;;;;;3.83;2.38;;;29.10;41.10;;;;;;5009268;28;20809;-77
2022/10/30 04:45:42;;;;;;;0.90;0.73;;;29.10;40.50;;;;;;5006781;28;20516;-83
2022/10/30 04:48:14;;;;;;;4.17;0.60;;;29.60;40.30;;;;;;4994457;28;20433;-78
2022/10/30 04:50:42;;;;;;;0.68;0.50;;;30.00;41.00;;;;;;4993740;28;20401;-84
2022/10/30 04:53:41;;;;;;;1.42;0.50;;;30.20;40.50;;;;;;4993462;28;20874;-78
2022/10/30 04:56:08;;;;;;;0.60;0.50;;;30.30;40.00;;;;;;4990863;28;20464;-78
2022/10/30 04:58:35;;;;;;;0.95;0.50;;;29.80;40.30;;;;;;4991538;28;20452;-78
2022/10/30 05:01:04;;;;;;;0.65;0.40;;;29.40;41.00;;;;;;4992651;28;20428;-79
2022/10/30 05:03:31;;;;;;;1.85;0.60;;;29.40;40.90;;;;;;5007728;28;20400;-80
2022/10/30 05:05:59;;;;;;;1.05;0.55;;;29.40;41.30;;;;;;5009350;28;20381;-80
2022/10/30 05:08:26;;;;;;;0.63;0.40;;;29.40;40.90;;;;;;5008725;28;20420;-86
2022/10/30 05:10:54;;;;;;;2.10;0.47;;;29.20;40.70;;;;;;5007703;28;20396;-80
2022/10/30 05:13:21;;;;;;;1.00;0.50;;;29.10;41.00;;;;;;5008195;28;20432;-81
2022/10/30 05:15:48;;;;;;;1.15;0.50;;;29.20;41.20;;;;;;5007179;28;21134;-82
2022/10/30 05:18:15;;;;;;;1.08;0.50;;;29.40;40.10;;;;;;4994697;28;20516;-80
2022/10/30 05:20:42;;;;;;;2.90;0.40;;;29.30;41.00;;;;;;4998865;28;20392;-80
2022/10/30 05:23:09;;;;;;;2.20;0.60;;;29.30;40.70;;;;;;4993649;28;20770;-87
2022/10/30 05:25:36;;;;;;;1.30;0.50;;;29.30;42.60;;;;;;4992662;28;20397;-88
2022/10/30 05:28:05;;;;;;;2.37;0.70;;;29.10;42.80;;;;;;4994653;28;20888;-87
2022/10/30 05:30:34;;;;;;;1.58;0.63;;;28.80;44.00;;;;;;4993175;28;20396;-88
2022/10/30 05:33:06;;;;;;;1.20;0.60;;;28.60;45.00;;;;;;4992365;28;20403;-89
2022/10/30 05:35:34;;;;;;;3.22;0.60;;;28.50;45.40;;;;;;4992423;28;20396;-91
2022/10/30 05:38:04;;;;;;;1.63;0.80;;;28.20;45.20;;;;;;4985589;28;20508;-90
2022/10/30 05:40:32;;;;;;;1.90;0.70;;;27.80;45.50;;;;;;4988861;28;20396;-88
2022/10/30 05:42:59;;;;;;;2.17;0.63;;;27.70;46.30;;;;;;4994460;28;20397;-86
2022/10/30 05:45:26;;;;;;;1.92;0.70;;;28.00;45.50;;;;;;4992624;28;20392;-87
2022/10/30 05:47:58;;;;;;;1.92;0.60;;;28.50;44.80;;;;;;4992377;28;20820;-91
2022/10/30 05:50:26;;;;;;;2.13;0.60;;;29.00;44.00;;;;;;4989918;28;20405;-89
2022/10/30 05:52:57;;;;;;;1.70;0.57;;;28.80;44.10;;;;;;4992303;28;20577;-87
2022/10/30 05:55:24;;;;;;;1.25;0.77;;;28.70;44.30;;;;;;4983888;28;20384;-86
2022/10/30 05:58:02;;;;;;;1.10;0.60;;;28.50;45.20;;;;;;5025974;28;20407;-88
2022/10/30 06:00:32;;;;;;;1.15;0.55;;;28.10;44.50;;;;;;4996499;28;20389;-90
2022/10/30 06:03:05;;;;;;;1.70;0.70;;;27.50;46.00;;;;;;4990243;28;20385;-88
2022/10/30 06:05:34;;;;;;;1.75;0.60;;;26.90;46.80;;;;;;5000403;28;20393;-89
2022/10/30 06:08:01;;;;;;;2.13;0.60;;;26.60;48.10;;;;;;5024850;28;20392;-86
2022/10/30 06:10:29;;;;;;;1.50;0.70;;;26.70;48.20;;;;;;5005194;28;20397;-88
2022/10/30 06:13:01;;;;;;;1.85;0.70;;;26.60;48.60;;;;;;5001906;28;20427;-87
2022/10/30 06:15:29;;;;;;;3.45;0.77;;;26.60;48.80;;;;;;4979793;28;20385;-87
2022/10/30 06:17:56;;;;;;;3.78;0.80;;;26.60;49.30;;;;;;4992758;28;20424;-84
2022/10/30 06:20:25;;;;;;;2.90;0.80;;;26.50;49.10;;;;;;4997502;28;20384;-86
2022/10/30 06:23:00;;;;;;;2.03;0.80;;;26.70;49.30;;;;;;4992685;28;20389;-83
2022/10/30 06:25:29;;;;;;;1.88;0.90;;;27.10;48.90;;;;;;4992433;28;20387;-84
2022/10/30 06:27:57;;;;;;;1.35;0.80;;;27.60;46.90;;;;;;4994496;28;20389;-84
2022/10/30 06:30:25;;;;;;;3.17;1.10;;;28.20;45.40;;;;;;4991363;28;21211;-83
2022/10/30 06:33:03;;;;;;;2.13;0.90;;;28.50;45.30;;;;;;4992346;28;20431;-82
2022/10/30 06:35:30;;;;;;;4.18;0.80;;;28.60;44.90;;;;;;4991900;28;20396;-85
2022/10/30 06:38:00;;;;;;;2.22;0.77;;;29.00;45.40;;;;;;4992634;28;20511;-83
2022/10/30 06:40:31;;;;;;;1.90;0.63;;;29.30;43.90;;;;;;4992514;28;20464;-85
2022/10/30 06:42:58;;;;;;;2.70;0.70;;;28.80;43.70;;;;;;4991898;28;20388;-83
2022/10/30 06:45:25;;;;;;;2.58;0.70;;;28.00;45.40;;;;;;4992062;28;20468;-83
2022/10/30 06:47:52;;;;;;;1.98;0.65;;;27.50;46.50;;;;;;4991795;28;20892;-82
2022/10/30 06:50:20;;;;;;;1.95;0.70;;;27.00;47.70;;;;;;4990627;28;20808;-83
2022/10/30 06:52:48;;;;;;;3.78;0.90;;;26.60;48.70;;;;;;4991980;28;20411;-83
2022/10/30 06:55:15;;;;;;;3.30;1.30;;;26.10;49.60;;;;;;4992072;28;20865;-83
2022/10/30 06:57:43;;;;;;;2.10;1.00;;;25.80;50.40;;;;;;4991699;28;20397;-85
2022/10/30 07:00:10;;;;;;;2.45;0.90;;;25.90;50.60;;;;;;4981072;28;20436;-85
2022/10/30 07:02:37;;;;;;;1.73;0.70;;;25.70;50.90;;;;;;4991743;28;20379;-84
2022/10/30 07:05:04;;;;;;;2.10;0.80;;;26.10;50.00;;;;;;4991813;28;20443;-85
2022/10/30 07:07:31;;;;;;;2.17;0.70;;;26.70;49.70;;;;;;4992125;28;20468;-84
2022/10/30 07:09:58;;;;;;;1.73;0.95;;;26.90;48.40;;;;;;4991660;28;20912;-84
2022/10/30 07:12:25;;;;;;;4.60;0.90;;;27.30;48.40;;;;;;4992494;28;20389;-85
2022/10/30 07:14:52;;;;;;;3.03;1.58;;;27.50;48.10;;;;;;4991664;28;20738;-85
2022/10/30 07:17:19;;;;;;;3.97;1.30;;;27.60;47.70;;;;;;4979093;28;20501;-85
2022/10/30 07:19:46;;;;;;;5.13;1.80;;;27.20;47.90;;;;;;4991322;28;20768;-85
2022/10/30 07:22:17;;;;;;;3.58;1.80;;;27.10;48.20;;;;;;4991059;28;20373;-84
2022/10/30 07:24:44;;;;;;;3.83;1.50;;;26.90;47.60;;;;;;4988731;28;20427;-84
2022/10/30 07:27:11;;;;;;;3.20;1.45;;;26.10;48.50;;;;;;4990182;28;20462;-85
2022/10/30 07:29:38;;;;;;;4.20;1.50;;;25.40;50.50;;;;;;4991977;28;20399;-84
2022/10/30 07:32:05;;;;;;;5.13;1.83;;;24.80;50.60;;;;;;4992761;28;20389;-84
2022/10/30 07:34:33;;;;;;;4.00;1.77;;;24.30;52.40;;;;;;4991768;28;20416;-84
2022/10/30 07:37:00;;;;;;;2.80;1.20;;;23.90;53.90;;;;;;4992441;28;20452;-83
2022/10/30 07:39:27;;;;;;;4.03;2.40;;;23.70;53.80;;;;;;4991059;28;20392;-83
2022/10/30 07:41:54;;;;;;;3.42;1.20;;;23.40;54.50;;;;;;4992069;28;20400;-83
2022/10/30 07:44:21;;;;;;;3.40;0.90;;;23.20;54.60;;;;;;4991861;28;20401;-83
2022/10/30 07:46:48;;;;;;;1.95;0.80;;;23.00;55.80;;;;;;4991704;28;20461;-82
2022/10/30 07:49:15;;;;;;;3.00;1.00;;;22.90;56.30;;;;;;4989457;28;20397;-83
2022/10/30 07:51:42;;;;;;;3.53;1.10;;;22.90;56.90;;;;;;4993272;28;20385;-88
2022/10/30 07:54:09;;;;;;;4.00;1.63;;;22.70;57.30;;;;;;4993027;28;20405;-82
2022/10/30 07:56:36;;;;;;;5.13;2.40;;;22.60;57.80;;;;;;4993181;28;20412;-82
2022/10/30 07:59:04;;;;;;;6.63;3.50;;;22.40;58.40;;;;;;4995575;28;20880;-82
2022/10/30 08:01:31;;;;;;;10.63;8.75;;;22.20;59.10;;;;;;4997587;28;20381;-83
2022/10/30 08:03:58;;;;;;;7.65;4.60;;;22.00;59.70;;;;;;4998124;28;20407;-84
2022/10/30 08:06:25;;;;;;;12.77;9.20;;;21.90;60.30;;;;;;5000853;28;20472;-83
2022/10/30 08:08:52;;;;;;;8.55;5.43;;;21.80;61.40;;;;;;5002352;28;20385;-81
2022/10/30 08:11:19;;;;;;;13.80;8.18;;;21.50;62.00;;;;;;5005982;28;20919;-83
2022/10/30 08:13:49;;;;;;;10.40;7.05;;;21.30;62.80;;;;;;5037458;28;20389;-83
2022/10/30 08:16:17;;;;;;;8.52;5.10;;;21.20;63.60;;;;;;5001268;28;20383;-81
2022/10/30 08:18:44;;;;;;;5.97;3.00;;;21.00;64.30;;;;;;4999865;28;20455;-82
2022/10/30 08:21:13;;;;;;;4.47;2.00;;;20.90;64.80;;;;;;4999656;28;20387;-81
2022/10/30 08:23:40;;;;;;;4.55;2.08;;;20.80;65.00;;;;;;4997597;28;20381;-80
2022/10/30 08:26:07;;;;;;;3.55;1.80;;;20.70;65.80;;;;;;4999426;28;20392;-80
2022/10/30 08:28:34;;;;;;;3.33;1.55;;;20.60;66.00;;;;;;5028073;28;20883;-83
2022/10/30 08:31:01;;;;;;;3.40;1.13;;;20.60;66.10;;;;;;5011863;28;20836;-84
2022/10/30 08:33:28;;;;;;;3.80;1.10;;;20.60;66.70;;;;;;5005471;28;20396;-79
2022/10/30 08:36:00;;;;;;;4.00;1.10;;;20.50;66.80;;;;;;5009997;28;20388;-82
2022/10/30 08:38:29;;;;;;;3.88;1.00;;;20.60;67.40;;;;;;5016646;28;20411;-83
2022/10/30 08:40:56;;;;;;;3.58;1.08;;;20.50;66.40;;;;;;5013356;28;20377;-83
2022/10/30 08:43:25;;;;;;;2.08;0.80;;;20.40;66.60;;;;;;5014241;28;20392;-83
2022/10/30 08:45:52;;;;;;;3.97;0.80;;;20.30;65.70;;;;;;5013313;28;20372;-83
2022/10/30 08:48:19;;;;;;;2.05;0.80;;;20.30;66.10;;;;;;5014968;28;20412;-85
2022/10/30 08:50:47;;;;;;;2.72;0.90;;;20.30;66.20;;;;;;5012668;28;20389;-85
2022/10/30 08:53:15;;;;;;;2.17;0.75;;;20.20;66.20;;;;;;5019192;28;20443;-84
2022/10/30 08:55:42;;;;;;;2.58;0.90;;;20.10;67.10;;;;;;5017011;28;20389;-83
2022/10/30 08:58:09;;;;;;;3.78;1.00;;;20.10;67.50;;;;;;5017461;28;20431;-78
2022/10/30 09:00:37;;;;;;;4.93;1.20;;;20.10;67.80;;;;;;5030440;28;20425;-85
2022/10/30 09:03:04;;;;;;;4.28;1.45;;;20.10;68.40;;;;;;5032807;28;20402;-85
2022/10/30 09:05:32;;;;;;;3.70;1.30;;;20.10;68.30;;;;;;5015850;28;20427;-82
2022/10/30 09:07:59;;;;;;;1.75;0.90;;;20.10;68.50;;;;;;5008969;28;20411;-83
2022/10/30 09:10:27;;;;;;;5.07;0.90;;;20.00;69.00;;;;;;5013006;28;20900;-86
2022/10/30 09:12:58;;;;;;;3.53;1.00;;;20.00;69.40;;;;;;5015806;28;20376;-84
2022/10/30 09:15:26;;;;;;;4.95;1.10;;;19.90;70.00;;;;;;5016989;28;20380;-85
2022/10/30 09:18:03;;;;;;;4.55;0.98;;;19.90;70.00;;;;;;5016475;28;20393;-85
2022/10/30 09:20:31;;;;;;;2.33;0.90;;;19.90;70.80;;;;;;5008188;28;20477;-83
2022/10/30 09:22:58;;;;;;;4.75;1.08;;;19.80;71.80;;;;;;5007806;28;20389;-83
2022/10/30 09:25:25;;;;;;;3.60;1.00;;;19.70;71.30;;;;;;5007455;28;20397;-84
2022/10/30 09:27:52;;;;;;;3.80;1.02;;;19.70;71.90;;;;;;5007535;28;20453;-84
2022/10/30 09:30:19;;;;;;;3.95;1.33;;;19.70;72.30;;;;;;5005261;28;20393;-83
2022/10/30 09:32:53;;;;;;;3.28;1.20;;;19.60;73.10;;;;;;5004828;28;20393;-82
2022/10/30 09:35:20;;;;;;;3.92;1.08;;;19.60;73.40;;;;;;4999226;28;20872;-84
2022/10/30 09:37:47;;;;;;;6.90;1.25;;;19.60;73.50;;;;;;4994312;28;20940;-82
2022/10/30 09:40:49;;;;;;;4.13;0.95;;;19.60;74.20;;;;;;4995032;28;20388;-83
2022/10/30 09:43:59;;;;;;;3.78;1.02;;;19.50;75.10;;;;;;4996450;28;20450;-85
2022/10/30 09:46:42;;;;;;;4.68;1.00;;;19.50;75.30;;;;;;4977581;28;20400;-85
2022/10/30 09:49:26;;;;;;;2.35;0.90;;;19.30;76.50;;;;;;4994942;28;20777;-85
2022/10/30 09:52:07;;;;;;;5.47;1.20;;;19.20;78.00;;;;;;4995082;28;20435;-84
2022/10/30 09:55:10;;;;;;;3.72;1.35;;;19.20;79.10;;;;;;4983621;28;20453;-83
2022/10/30 09:57:51;;;;;;;3.40;1.27;;;19.20;80.00;;;;;;4990620;28;20400;-84
2022/10/30 10:00:23;;;;;;;3.55;1.10;;;19.10;81.20;;;;;;4997860;28;20389;-84
2022/10/30 10:03:14;;;;;;;3.88;1.20;;;19.00;82.90;;;;;;4995378;28;20385;-83
2022/10/30 10:05:47;;;;;;;3.60;1.20;;;18.90;84.90;;;;;;4991565;28;20507;-84
2022/10/30 10:08:23;;;;;;;3.63;1.08;;;18.70;87.50;;;;;;4992287;28;20632;-85
2022/10/30 10:10:58;;;;;;;4.68;1.48;;;18.60;90.20;;;;;;4992979;28;20500;-85
2022/10/30 10:13:43;;;;;;;3.37;1.23;;;18.60;90.90;;;;;;4994850;28;20407;-85
2022/10/30 10:16:23;;;;;;;4.15;1.15;;;18.40;92.40;;;;;;4995312;28;20393;-85
2022/10/30 10:19:07;;;;;;;5.13;1.25;;;18.30;93.10;;;;;;4994507;28;20496;-84
2022/10/30 10:21:44;;;;;;;3.40;1.20;;;18.20;94.20;;;;;;4995077;28;20393;-84
2022/10/30 10:24:43;;;;;;;4.88;1.30;;;18.30;95.10;;;;;;4996503;28;20401;-83
2022/10/30 10:27:34;;;;;;;5.43;1.20;;;18.30;95.70;;;;;;4993104;28;20403;-83
2022/10/30 10:30:19;;;;;;;4.18;1.20;;;18.30;96.40;;;;;;4992191;28;20796;-84
2022/10/30 10:33:01;;;;;;;3.70;1.10;;;18.30;97.10;;;;;;4991569;28;20440;-85
2022/10/30 10:35:52;;;;;;;3.63;1.25;;;18.30;97.50;;;;;;4992317;28;20385;-84
2022/10/30 10:38:27;;;;;;;4.75;1.17;;;18.40;98.00;;;;;;4980841;28;20448;-84
2022/10/30 10:41:13;;;;;;;4.70;1.20;;;18.40;97.90;;;;;;4991297;28;20424;-84
2022/10/30 10:44:21;;;;;;;5.10;1.35;;;18.40;98.10;;;;;;4992033;28;20456;-84
2022/10/30 10:47:07;;;;;;;4.38;1.40;;;18.30;98.40;;;;;;4967135;28;20475;-84
2022/10/30 10:49:55;;;;;;;4.97;1.30;;;18.20;98.70;;;;;;4946141;28;22141;-84
2022/10/30 10:52:42;;;;;;;4.67;1.20;;;18.10;99.30;;;;;;4951081;28;20453;-84
2022/10/30 10:55:26;;;;;;;4.95;1.40;;;18.00;99.70;;;;;;4950565;28;20403;-84
2022/10/30 10:57:58;;;;;;;5.33;1.20;;;17.90;99.90;;;;;;4950224;28;20497;-85
2022/10/30 11:00:28;;;;;;;3.93;1.20;;;17.80;99.90;;;;;;4950793;28;20813;-85
2022/10/30 11:03:33;;;;;;;5.13;1.20;;;17.70;99.90;;;;;;4950405;28;20892;-86
2022/10/30 11:06:23;;;;;;;4.95;1.67;;;17.60;99.90;;;;;;4948181;28;20427;-84
2022/10/30 11:08:57;;;;;;;6.25;1.83;;;17.70;99.90;;;;;;4950670;28;20402;-86
2022/10/30 11:11:25;;;;;;;5.68;1.80;;;17.60;99.90;;;;;;4950077;28;20423;-85
2022/10/30 11:14:01;;;;;;;5.57;1.55;;;17.60;99.90;;;;;;4950490;28;20395;-84
2022/10/30 11:16:48;;;;;;;4.10;1.50;;;17.50;99.90;;;;;;4953135;28;20499;-85
2022/10/30 11:19:16;;;;;;;5.28;1.25;;;17.40;99.90;;;;;;4989932;28;20414;-86
2022/10/30 11:21:48;;;;;;;6.00;2.10;;;17.40;99.90;;;;;;4991115;28;20385;-85
2022/10/30 11:24:28;;;;;;;4.43;1.58;;;17.40;99.90;;;;;;4990659;28;20400;-85
2022/10/30 11:27:18;;;;;;;6.35;1.52;;;17.50;99.90;;;;;;4990327;28;20413;-84
2022/10/30 11:30:03;;;;;;;4.55;1.58;;;17.40;99.90;;;;;;4989398;28;20401;-86
2022/10/30 11:32:33;;;;;;;3.90;1.40;;;17.50;99.90;;;;;;4990472;28;20384;-84
2022/10/30 11:35:09;;;;;;;5.97;1.38;;;17.50;99.90;;;;;;4990426;28;22136;-85
2022/10/30 11:37:38;;;;;;;3.80;1.50;;;17.40;99.90;;;;;;4990337;28;20405;-84
2022/10/30 11:40:25;;;;;;;4.97;1.50;;;17.30;99.90;;;;;;4991099;28;20911;-84
2022/10/30 11:43:02;;;;;;;8.05;1.52;;;17.30;99.90;;;;;;4990259;28;20392;-85
2022/10/30 11:45:42;;;;;;;6.65;1.50;;;17.20;99.90;;;;;;4990863;28;20400;-85
2022/10/30 11:48:28;;;;;;;5.43;1.40;;;17.10;99.90;;;;;;4990589;28;21409;-85
2022/10/30 11:51:00;;;;;;;3.35;1.25;;;17.10;99.90;;;;;;4990643;28;20400;-84
2022/10/30 11:53:38;;;;;;;4.38;1.40;;;17.20;99.90;;;;;;4977533;28;20965;-84
2022/10/30 11:56:14;;;;;;;5.03;1.40;;;17.30;99.90;;;;;;4984744;28;20458;-83
2022/10/30 11:58:54;;;;;;;5.13;1.30;;;17.40;99.90;;;;;;4989697;28;20888;-83
2022/10/30 12:01:30;;;;;;;6.93;1.30;;;17.50;99.90;;;;;;4988976;28;20484;-84
2022/10/30 12:04:12;;;;;;;4.35;1.40;;;17.50;99.90;;;;;;4989379;28;20473;-85
2022/10/30 12:06:39;;;;;;;5.57;1.45;;;17.70;99.90;;;;;;4989192;28;20399;-84
2022/10/30 12:09:22;;;;;;;6.00;1.70;;;17.70;99.90;;;;;;4990578;28;20389;-84
2022/10/30 12:11:49;;;;;;;6.13;1.80;;;17.70;99.90;;;;;;4988947;28;20392;-84
2022/10/30 12:14:22;;;;;;;6.63;1.60;;;17.70;99.90;;;;;;4989102;28;20467;-84
2022/10/30 12:16:56;;;;;;;4.20;1.70;;;17.80;99.90;;;;;;4987522;28;20381;-84
2022/10/30 12:19:25;;;;;;;5.43;1.60;;;17.90;99.90;;;;;;4990028;28;20413;-85
2022/10/30 12:21:57;;;;;;;4.60;1.50;;;17.90;99.90;;;;;;4990141;28;20769;-83
2022/10/30 12:24:31;;;;;;;8.20;1.70;;;17.90;99.90;;;;;;4990532;28;20396;-84
2022/10/30 12:27:03;;;;;;;8.50;1.60;;;17.90;99.90;;;;;;4989846;28;20422;-84
2022/10/30 12:30:01;;;;;;;5.32;1.83;;;17.90;99.90;;;;;;4989988;28;20449;-84
2022/10/30 12:32:55;;;;;;;5.63;1.60;;;17.90;99.90;;;;;;4949118;28;20388;-84
2022/10/30 12:35:41;;;;;;;5.45;1.55;;;17.80;99.90;;;;;;4950515;28;20474;-84
2022/10/30 12:38:18;;;;;;;6.20;1.50;;;17.90;99.90;;;;;;4953077;28;20760;-84
2022/10/30 12:41:05;;;;;;;5.90;1.60;;;17.90;99.90;;;;;;4952974;28;20448;-84
2022/10/30 12:43:35;;;;;;;6.20;1.45;;;17.90;99.90;;;;;;4952944;28;20442;-84
2022/10/30 12:46:40;;;;;;;5.05;1.50;;;17.90;99.90;;;;;;4952743;28;20407;-83
2022/10/30 12:49:22;;;;;;;6.15;1.40;;;17.90;99.90;;;;;;4876957;29;20817;-83
2022/10/30 12:52:14;;;;;;;4.25;1.30;;;17.90;99.90;;;;;;4876799;29;20426;-82
2022/10/30 12:55:03;;;;;;;5.03;1.45;;;17.90;99.90;;;;;;4877654;29;20438;-83
2022/10/30 12:57:37;;;;;;;4.78;1.30;;;17.80;99.90;;;;;;4873794;29;20422;-84
2022/10/30 13:00:06;;;;;;;4.40;1.40;;;17.80;99.90;;;;;;4876351;29;20467;-83
2022/10/30 13:02:36;;;;;;;6.03;1.50;;;17.80;99.90;;;;;;4861172;29;20451;-82
2022/10/30 13:05:18;;;;;;;3.90;1.50;;;17.80;99.90;;;;;;4877091;29;20935;-83
2022/10/30 13:07:51;;;;;;;5.28;1.35;;;17.80;99.90;;;;;;4879363;29;20395;-81
2022/10/30 13:10:49;;;;;;;5.20;1.40;;;17.80;99.90;;;;;;4914108;29;20407;-81
2022/10/30 13:13:28;;;;;;;3.13;1.17;;;17.80;99.90;;;;;;4904853;29;20417;-82